Wetterdaten: Sonntag, 11.11.2012
Datum Zeit Temperatur Luftfeuchte Regen Wind Richtung Richtung Taupunkt Windchill Windben
11.11.2012 00:00 7,3 C 86 % 0,0 l/m 1,0 km/h (0 Bft) N-NO 22 5,1 C 7,4 C 0,0 km/h (0 Bft)
11.11.2012 00:05 7,5 C 86 % 0,0 l/m 0,8 km/h (0 Bft) N-NW 337 5,3 C 7,4 C 0,0 km/h (0 Bft)
11.11.2012 00:10 7,7 C 86 % 0,0 l/m 0,2 km/h (0 Bft) N-NO 22 5,5 C 7,7 C 0,0 km/h (0 Bft)
11.11.2012 00:15 7,8 C 85 % 0,0 l/m 0,0 km/h (0 Bft) S-SW 202 5,4 C 7,9 C 0,0 km/h (0 Bft)
11.11.2012 00:20 7,6 C 85 % 0,0 l/m 0,0 km/h (0 Bft) N-NO 22 5,2 C 7,9 C 0,0 km/h (0 Bft)
11.11.2012 00:25 7,8 C 85 % 0,0 l/m 0,2 km/h (0 Bft) NO 45 5,4 C 7,9 C 0,0 km/h (0 Bft)
11.11.2012 00:30 7,8 C 85 % 0,0 l/m 0,2 km/h (0 Bft) W-NW 292 5,4 C 8,0 C 2,3 km/h (1 Bft)
11.11.2012 00:35 7,5 C 85 % 0,0 l/m 0,0 km/h (0 Bft) W-NW 292 5,1 C 8,0 C 0,0 km/h (0 Bft)
11.11.2012 00:40 7,4 C 85 % 0,0 l/m 0,0 km/h (0 Bft) S 180 5,0 C 8,0 C 0,0 km/h (0 Bft)
11.11.2012 00:45 7,3 C 85 % 0,0 l/m 0,2 km/h (0 Bft) O-SO 112 4,9 C 7,9 C 0,0 km/h (0 Bft)
11.11.2012 00:50 7,5 C 85 % 0,0 l/m 0,2 km/h (0 Bft) N 360 5,1 C 7,7 C 2,6 km/h (1 Bft)
11.11.2012 00:55 7,4 C 85 % 0,0 l/m 0,0 km/h (0 Bft) N 360 5,0 C 7,7 C 0,0 km/h (0 Bft)
11.11.2012 01:00 7,3 C 85 % 0,0 l/m 0,0 km/h (0 Bft) O 90 4,9 C 7,7 C 0,0 km/h (0 Bft)
11.11.2012 01:05 7,4 C 85 % 0,0 l/m 0,0 km/h (0 Bft) N-NO 22 5,0 C 7,7 C 0,0 km/h (0 Bft)
11.11.2012 01:10 8,0 C 86 % 0,0 l/m 0,0 km/h (0 Bft) NO 45 5,8 C 7,8 C 0,0 km/h (0 Bft)
11.11.2012 01:15 7,6 C 85 % 0,0 l/m 0,0 km/h (0 Bft) S-SO 157 5,2 C 7,8 C 0,0 km/h (0 Bft)
11.11.2012 01:20 7,1 C 85 % 0,0 l/m 0,0 km/h (0 Bft) S 180 4,8 C 7,6 C 0,0 km/h (0 Bft)
11.11.2012 01:25 7,0 C 85 % 0,0 l/m 0,0 km/h (0 Bft) O 90 4,7 C 7,5 C 0,0 km/h (0 Bft)
11.11.2012 01:30 7,1 C 86 % 0,0 l/m 0,0 km/h (0 Bft) W 270 4,9 C 7,4 C 0,0 km/h (0 Bft)
11.11.2012 01:35 7,1 C 86 % 0,0 l/m 0,0 km/h (0 Bft) W 270 4,9 C 7,4 C 0,0 km/h (0 Bft)
11.11.2012 01:40 7,0 C 86 % 0,0 l/m 0,0 km/h (0 Bft) W-NW 292 4,8 C 7,3 C 0,0 km/h (0 Bft)
11.11.2012 01:45 7,0 C 86 % 0,0 l/m 0,0 km/h (0 Bft) N-NO 22 4,8 C 7,3 C 0,0 km/h (0 Bft)
11.11.2012 01:50 7,3 C 87 % 0,0 l/m 0,3 km/h (0 Bft) W 270 5,3 C 7,4 C 4,2 km/h (1 Bft)
11.11.2012 01:55 7,1 C 87 % 0,0 l/m 0,3 km/h (0 Bft) W-SW 247 5,1 C 7,3 C 0,0 km/h (0 Bft)
11.11.2012 02:00 7,0 C 87 % 0,0 l/m 0,2 km/h (0 Bft) NO 45 5,0 C 7,2 C 0,0 km/h (0 Bft)
11.11.2012 02:05 7,0 C 87 % 0,0 l/m 0,0 km/h (0 Bft) SO 135 5,0 C 7,2 C 0,0 km/h (0 Bft)
11.11.2012 02:10 7,0 C 87 % 0,0 l/m 0,0 km/h (0 Bft) N-NO 22 5,0 C 7,2 C 0,0 km/h (0 Bft)
11.11.2012 02:15 7,1 C 87 % 0,0 l/m 0,0 km/h (0 Bft) N 360 5,1 C 7,2 C 0,0 km/h (0 Bft)
11.11.2012 02:20 7,1 C 87 % 0,0 l/m 0,0 km/h (0 Bft) NO 45 5,1 C 7,3 C 0,0 km/h (0 Bft)
11.11.2012 02:25 7,1 C 87 % 0,0 l/m 0,0 km/h (0 Bft) NO 45 5,1 C 7,3 C 0,0 km/h (0 Bft)
11.11.2012 02:30 7,1 C 87 % 0,0 l/m 0,0 km/h (0 Bft) NO 45 5,1 C 7,4 C 0,0 km/h (0 Bft)
11.11.2012 02:35 6,9 C 87 % 0,0 l/m 0,0 km/h (0 Bft) S-SO 157 4,9 C 7,4 C 0,0 km/h (0 Bft)
11.11.2012 02:40 6,8 C 87 % 0,0 l/m 0,0 km/h (0 Bft) S 180 4,8 C 7,2 C 0,0 km/h (0 Bft)
11.11.2012 02:45 6,7 C 87 % 0,0 l/m 0,0 km/h (0 Bft) S 180 4,7 C 7,1 C 0,0 km/h (0 Bft)
11.11.2012 02:50 6,5 C 87 % 0,0 l/m 0,0 km/h (0 Bft) S 180 4,5 C 6,9 C 0,0 km/h (0 Bft)
11.11.2012 02:55 6,6 C 88 % 0,0 l/m 0,0 km/h (0 Bft) S 180 4,8 C 6,8 C 0,0 km/h (0 Bft)
11.11.2012 03:00 6,6 C 88 % 0,0 l/m 0,0 km/h (0 Bft) W-NW 292 4,8 C 6,8 C 0,0 km/h (0 Bft)
11.11.2012 03:05 6,5 C 88 % 0,0 l/m 0,0 km/h (0 Bft) N-NW 337 4,7 C 6,8 C 0,0 km/h (0 Bft)
11.11.2012 03:10 6,6 C 88 % 0,0 l/m 0,0 km/h (0 Bft) N-NW 337 4,8 C 6,8 C 0,0 km/h (0 Bft)
11.11.2012 03:15 6,6 C 88 % 0,0 l/m 0,2 km/h (0 Bft) O-SO 112 4,8 C 6,8 C 2,9 km/h (1 Bft)
11.11.2012 03:20 6,7 C 88 % 0,0 l/m 0,5 km/h (0 Bft) NO 45 4,9 C 6,8 C 0,0 km/h (0 Bft)
11.11.2012 03:25 6,7 C 88 % 0,0 l/m 0,5 km/h (0 Bft) NO 45 4,9 C 6,9 C 0,0 km/h (0 Bft)
11.11.2012 03:30 6,5 C 88 % 0,0 l/m 0,0 km/h (0 Bft) N 360 4,7 C 6,8 C 0,0 km/h (0 Bft)
11.11.2012 03:35 6,5 C 88 % 0,0 l/m 0,0 km/h (0 Bft) N 360 4,7 C 6,7 C 0,0 km/h (0 Bft)
11.11.2012 03:40 6,4 C 88 % 0,0 l/m 0,0 km/h (0 Bft) N 360 4,6 C 6,6 C 0,0 km/h (0 Bft)
11.11.2012 03:45 6,4 C 89 % 0,0 l/m 0,0 km/h (0 Bft) N 360 4,7 C 6,6 C 0,0 km/h (0 Bft)
11.11.2012 03:50 6,4 C 89 % 0,0 l/m 0,0 km/h (0 Bft) N 360 4,7 C 6,7 C 0,0 km/h (0 Bft)
11.11.2012 03:55 6,4 C 89 % 0,0 l/m 0,0 km/h (0 Bft) N-NO 22 4,7 C 6,7 C 0,0 km/h (0 Bft)
11.11.2012 04:00 6,2 C 89 % 0,0 l/m 0,0 km/h (0 Bft) O-SO 112 4,5 C 6,5 C 0,0 km/h (0 Bft)
11.11.2012 04:05 6,2 C 89 % 0,0 l/m 0,0 km/h (0 Bft) S 180 4,5 C 6,5 C 0,0 km/h (0 Bft)
11.11.2012 04:10 6,1 C 89 % 0,0 l/m 0,0 km/h (0 Bft) S 180 4,4 C 6,3 C 0,0 km/h (0 Bft)
11.11.2012 04:15 6,0 C 89 % 0,0 l/m 0,0 km/h (0 Bft) W-SW 247 4,3 C 6,3 C 0,0 km/h (0 Bft)
11.11.2012 04:20 5,9 C 89 % 0,0 l/m 0,0 km/h (0 Bft) NO 45 4,2 C 6,2 C 0,0 km/h (0 Bft)
11.11.2012 04:25 5,8 C 89 % 0,0 l/m 0,0 km/h (0 Bft) NO 45 4,1 C 6,0 C 0,0 km/h (0 Bft)
11.11.2012 04:30 5,8 C 89 % 0,0 l/m 0,0 km/h (0 Bft) O-SO 112 4,1 C 5,9 C 0,0 km/h (0 Bft)
11.11.2012 04:35 5,8 C 90 % 0,0 l/m 0,0 km/h (0 Bft) SO 135 4,3 C 5,9 C 1,8 km/h (1 Bft)
11.11.2012 04:40 5,9 C 90 % 0,0 l/m 0,2 km/h (0 Bft) O-SO 112 4,4 C 6,0 C 0,0 km/h (0 Bft)
11.11.2012 04:45 6,0 C 89 % 0,0 l/m 0,2 km/h (0 Bft) O-SO 112 4,3 C 6,1 C 0,0 km/h (0 Bft)
11.11.2012 04:50 6,2 C 90 % 0,0 l/m 0,0 km/h (0 Bft) NO 45 4,7 C 6,2 C 0,0 km/h (0 Bft)
11.11.2012 04:55 6,3 C 90 % 0,0 l/m 0,0 km/h (0 Bft) N-NW 337 4,8 C 6,3 C 0,0 km/h (0 Bft)
11.11.2012 05:00 6,3 C 90 % 0,0 l/m 0,0 km/h (0 Bft) N-NW 337 4,8 C 6,4 C 0,0 km/h (0 Bft)
11.11.2012 05:05 6,2 C 90 % 0,0 l/m 0,0 km/h (0 Bft) N-NW 337 4,7 C 6,5 C 0,0 km/h (0 Bft)
11.11.2012 05:10 6,2 C 90 % 0,0 l/m 0,0 km/h (0 Bft) O 90 4,7 C 6,5 C 0,0 km/h (0 Bft)
11.11.2012 05:15 6,2 C 90 % 0,0 l/m 0,0 km/h (0 Bft) S 180 4,7 C 6,4 C 0,0 km/h (0 Bft)
11.11.2012 05:20 6,2 C 90 % 0,0 l/m 0,2 km/h (0 Bft) N 360 4,7 C 6,4 C 0,0 km/h (0 Bft)
11.11.2012 05:25 6,3 C 90 % 0,0 l/m 0,2 km/h (0 Bft) N-NW 337 4,8 C 6,6 C 0,0 km/h (0 Bft)
11.11.2012 05:30 6,1 C 90 % 0,0 l/m 0,5 km/h (0 Bft) S 180 4,6 C 6,8 C 0,0 km/h (0 Bft)
11.11.2012 05:35 6,1 C 90 % 0,0 l/m 0,3 km/h (0 Bft) N 360 4,6 C 6,7 C 0,0 km/h (0 Bft)
11.11.2012 05:40 6,3 C 90 % 0,0 l/m 0,2 km/h (0 Bft) NW 315 4,8 C 6,5 C 0,0 km/h (0 Bft)
11.11.2012 05:45 6,3 C 90 % 0,0 l/m 0,2 km/h (0 Bft) N 360 4,8 C 6,5 C 0,0 km/h (0 Bft)
11.11.2012 05:50 6,4 C 90 % 0,0 l/m 0,0 km/h (0 Bft) W-NW 292 4,9 C 6,5 C 0,0 km/h (0 Bft)
11.11.2012 05:55 6,6 C 90 % 0,0 l/m 0,3 km/h (0 Bft) N-NW 337 5,1 C 6,5 C 2,9 km/h (1 Bft)
11.11.2012 06:00 6,4 C 90 % 0,0 l/m 0,3 km/h (0 Bft) SO 135 4,9 C 6,7 C 0,0 km/h (0 Bft)
11.11.2012 06:05 6,1 C 90 % 0,0 l/m 0,3 km/h (0 Bft) NO 45 4,6 C 6,6 C 0,0 km/h (0 Bft)
11.11.2012 06:10 6,0 C 90 % 0,0 l/m 0,0 km/h (0 Bft) N-NO 22 4,5 C 6,3 C 0,0 km/h (0 Bft)
11.11.2012 06:15 6,0 C 90 % 0,0 l/m 0,0 km/h (0 Bft) N 360 4,5 C 6,2 C 0,0 km/h (0 Bft)
11.11.2012 06:20 5,9 C 91 % 0,0 l/m 0,0 km/h (0 Bft) O-SO 112 4,5 C 6,2 C 0,0 km/h (0 Bft)
11.11.2012 06:25 5,9 C 91 % 0,0 l/m 0,0 km/h (0 Bft) S-SO 157 4,5 C 6,2 C 0,0 km/h (0 Bft)
11.11.2012 06:30 5,8 C 91 % 0,0 l/m 0,0 km/h (0 Bft) O 90 4,4 C 6,1 C 0,0 km/h (0 Bft)
11.11.2012 06:35 5,7 C 91 % 0,0 l/m 0,0 km/h (0 Bft) O 90 4,3 C 6,0 C 0,0 km/h (0 Bft)
11.11.2012 06:40 6,0 C 90 % 0,0 l/m 0,0 km/h (0 Bft) O-NO 67 4,5 C 6,1 C 0,0 km/h (0 Bft)
11.11.2012 06:45 6,2 C 90 % 0,0 l/m 0,0 km/h (0 Bft) N-NO 22 4,7 C 6,2 C 0,0 km/h (0 Bft)
11.11.2012 06:50 6,3 C 90 % 0,0 l/m 0,0 km/h (0 Bft) NO 45 4,8 C 6,4 C 0,0 km/h (0 Bft)
11.11.2012 06:55 6,3 C 90 % 0,0 l/m 0,0 km/h (0 Bft) O-SO 112 4,8 C 6,5 C 0,0 km/h (0 Bft)
11.11.2012 07:00 6,3 C 90 % 0,0 l/m 0,0 km/h (0 Bft) O-NO 67 4,8 C 6,5 C 0,0 km/h (0 Bft)
11.11.2012 07:05 6,4 C 90 % 0,0 l/m 0,0 km/h (0 Bft) O 90 4,9 C 6,6 C 0,0 km/h (0 Bft)
11.11.2012 07:10 6,2 C 90 % 0,0 l/m 0,0 km/h (0 Bft) SO 135 4,7 C 6,6 C 0,0 km/h (0 Bft)
11.11.2012 07:15 6,1 C 90 % 0,0 l/m 0,0 km/h (0 Bft) SO 135 4,6 C 6,5 C 0,0 km/h (0 Bft)
11.11.2012 07:20 6,2 C 90 % 0,0 l/m 0,0 km/h (0 Bft) N-NO 22 4,7 C 6,5 C 0,0 km/h (0 Bft)
11.11.2012 07:25 6,3 C 90 % 0,0 l/m 0,0 km/h (0 Bft) N 360 4,8 C 6,5 C 0,0 km/h (0 Bft)
11.11.2012 07:30 6,5 C 90 % 0,0 l/m 0,0 km/h (0 Bft) N-NO 22 5,0 C 6,5 C 0,0 km/h (0 Bft)
11.11.2012 07:35 6,8 C 91 % 0,0 l/m 0,0 km/h (0 Bft) N-NW 337 5,4 C 6,7 C 0,0 km/h (0 Bft)
11.11.2012 07:40 6,9 C 91 % 0,0 l/m 0,0 km/h (0 Bft) N-NO 22 5,5 C 6,8 C 0,0 km/h (0 Bft)
11.11.2012 07:45 7,1 C 90 % 0,0 l/m 0,2 km/h (0 Bft) N-NW 337 5,6 C 7,1 C 0,0 km/h (0 Bft)
11.11.2012 07:50 7,2 C 90 % 0,0 l/m 0,2 km/h (0 Bft) N-NO 22 5,7 C 7,2 C 0,0 km/h (0 Bft)
11.11.2012 07:55 7,2 C 90 % 0,0 l/m 0,0 km/h (0 Bft) S 180 5,7 C 7,3 C 0,0 km/h (0 Bft)
11.11.2012 08:00 6,7 C 90 % 0,0 l/m 0,0 km/h (0 Bft) S 180 5,2 C 7,2 C 0,0 km/h (0 Bft)
11.11.2012 08:05 6,6 C 90 % 0,0 l/m 0,2 km/h (0 Bft) N-NO 22 5,1 C 7,1 C 0,0 km/h (0 Bft)
11.11.2012 08:10 6,9 C 90 % 0,0 l/m 0,2 km/h (0 Bft) N 360 5,4 C 7,1 C 1,8 km/h (1 Bft)
11.11.2012 08:15 7,1 C 90 % 0,0 l/m 0,2 km/h (0 Bft) O 90 5,6 C 7,1 C 0,0 km/h (0 Bft)
11.11.2012 08:20 7,1 C 90 % 0,0 l/m 0,2 km/h (0 Bft) S 180 5,6 C 7,4 C 0,0 km/h (0 Bft)
11.11.2012 08:25 7,0 C 90 % 0,0 l/m 0,0 km/h (0 Bft) SO 135 5,5 C 7,4 C 0,0 km/h (0 Bft)
11.11.2012 08:30 6,9 C 90 % 0,0 l/m 0,0 km/h (0 Bft) S-SO 157 5,4 C 7,3 C 0,0 km/h (0 Bft)
11.11.2012 08:35 6,9 C 90 % 0,0 l/m 0,0 km/h (0 Bft) O-SO 112 5,4 C 7,3 C 0,0 km/h (0 Bft)
11.11.2012 08:40 7,1 C 90 % 0,0 l/m 0,0 km/h (0 Bft) SO 135 5,6 C 7,4 C 0,0 km/h (0 Bft)
11.11.2012 08:45 7,1 C 90 % 0,0 l/m 0,0 km/h (0 Bft) O-SO 112 5,6 C 7,4 C 2,4 km/h (1 Bft)
11.11.2012 08:50 7,4 C 90 % 0,0 l/m 0,3 km/h (0 Bft) N-NO 22 5,9 C 7,6 C 0,0 km/h (0 Bft)
11.11.2012 08:55 7,5 C 90 % 0,0 l/m 0,3 km/h (0 Bft) N-NO 22 6,0 C 7,7 C 0,0 km/h (0 Bft)
11.11.2012 09:00 7,7 C 90 % 0,0 l/m 0,0 km/h (0 Bft) O-NO 67 6,2 C 7,7 C 0,0 km/h (0 Bft)
11.11.2012 09:05 7,7 C 90 % 0,0 l/m 0,0 km/h (0 Bft) NO 45 6,2 C 7,8 C 1,6 km/h (1 Bft)
11.11.2012 09:10 7,8 C 90 % 0,0 l/m 0,0 km/h (0 Bft) N 360 6,3 C 8,0 C 0,0 km/h (0 Bft)
11.11.2012 09:15 7,9 C 90 % 0,0 l/m 0,3 km/h (0 Bft) N 360 6,4 C 8,0 C 2,1 km/h (1 Bft)
11.11.2012 09:20 7,9 C 90 % 0,0 l/m 0,6 km/h (0 Bft) N-NW 337 6,4 C 8,1 C 0,0 km/h (0 Bft)
11.11.2012 09:25 7,9 C 90 % 0,0 l/m 0,5 km/h (0 Bft) N-NW 337 6,4 C 8,1 C 0,0 km/h (0 Bft)
11.11.2012 09:30 7,7 C 90 % 0,0 l/m 0,0 km/h (0 Bft) SO 135 6,2 C 8,0 C 0,0 km/h (0 Bft)
11.11.2012 09:35 7,5 C 90 % 0,0 l/m 0,2 km/h (0 Bft) S-SW 202 6,0 C 7,7 C 2,9 km/h (1 Bft)
11.11.2012 09:40 7,4 C 90 % 0,0 l/m 1,0 km/h (0 Bft) S-SW 202 5,9 C 7,5 C 4,8 km/h (1 Bft)
11.11.2012 09:45 7,3 C 90 % 0,7 l/m 0,8 km/h (0 Bft) O-SO 112 5,8 C 7,4 C 0,0 km/h (0 Bft)
11.11.2012 09:50 7,3 C 90 % 0,7 l/m 0,2 km/h (0 Bft) NO 45 5,8 C 7,4 C 0,0 km/h (0 Bft)
11.11.2012 09:55 7,3 C 91 % 0,0 l/m 0,3 km/h (0 Bft) N-NO 22 5,9 C 7,4 C 0,0 km/h (0 Bft)
11.11.2012 10:00 7,3 C 91 % 0,0 l/m 0,0 km/h (0 Bft) N-NW 337 5,9 C 7,4 C 1,6 km/h (1 Bft)
11.11.2012 10:05 7,3 C 92 % 0,7 l/m 0,0 km/h (0 Bft) N 360 6,1 C 7,4 C 1,6 km/h (1 Bft)
11.11.2012 10:10 7,3 C 92 % 0,0 l/m 0,0 km/h (0 Bft) N 360 6,1 C 7,4 C 0,0 km/h (0 Bft)
11.11.2012 10:15 7,4 C 92 % 0,0 l/m 0,0 km/h (0 Bft) N-NW 337 6,2 C 7,4 C 0,0 km/h (0 Bft)
11.11.2012 10:20 7,4 C 92 % 0,0 l/m 0,2 km/h (0 Bft) N-NO 22 6,2 C 7,6 C 1,8 km/h (1 Bft)
11.11.2012 10:25 7,4 C 93 % 0,7 l/m 0,6 km/h (0 Bft) N 360 6,3 C 7,6 C 3,4 km/h (1 Bft)
11.11.2012 10:30 7,5 C 93 % 0,0 l/m 0,6 km/h (0 Bft) W 270 6,4 C 7,6 C 2,1 km/h (1 Bft)
11.11.2012 10:35 7,6 C 93 % 0,0 l/m 0,6 km/h (0 Bft) W-NW 292 6,5 C 7,6 C 0,0 km/h (0 Bft)
11.11.2012 10:40 7,6 C 93 % 0,0 l/m 1,3 km/h (1 Bft) W 270 6,5 C 7,7 C 4,3 km/h (1 Bft)
11.11.2012 10:45 7,7 C 93 % 0,0 l/m 1,8 km/h (1 Bft) W-NW 292 6,6 C 7,8 C 2,3 km/h (1 Bft)
11.11.2012 10:50 7,7 C 93 % 0,0 l/m 2,1 km/h (1 Bft) W-NW 292 6,6 C 7,9 C 5,3 km/h (1 Bft)
11.11.2012 10:55 7,7 C 94 % 0,0 l/m 2,4 km/h (1 Bft) W 270 6,8 C 8,0 C 4,5 km/h (1 Bft)
11.11.2012 11:00 7,6 C 94 % 0,0 l/m 3,5 km/h (1 Bft) W-SW 247 6,7 C 7,9 C 6,9 km/h (2 Bft)
11.11.2012 11:05 7,6 C 94 % 0,0 l/m 3,5 km/h (1 Bft) W 270 6,7 C 7,8 C 4,5 km/h (1 Bft)
11.11.2012 11:10 7,6 C 94 % 0,0 l/m 3,7 km/h (1 Bft) W-SW 247 6,7 C 7,7 C 7,6 km/h (2 Bft)
11.11.2012 11:15 7,4 C 94 % 0,7 l/m 4,0 km/h (1 Bft) SW 225 6,5 C 7,4 C 3,7 km/h (1 Bft)
11.11.2012 11:20 7,4 C 94 % 0,0 l/m 3,9 km/h (1 Bft) W 270 6,5 C 7,5 C 5,6 km/h (1 Bft)
11.11.2012 11:25 7,3 C 94 % 0,0 l/m 4,0 km/h (1 Bft) W-SW 247 6,4 C 7,4 C 4,5 km/h (1 Bft)
11.11.2012 11:30 7,4 C 94 % 0,0 l/m 4,3 km/h (1 Bft) W-NW 292 6,5 C 7,3 C 8,2 km/h (2 Bft)
11.11.2012 11:35 7,4 C 94 % 0,0 l/m 4,7 km/h (1 Bft) N-NW 337 6,5 C 7,2 C 6,8 km/h (2 Bft)
11.11.2012 11:40 7,3 C 94 % 0,0 l/m 4,7 km/h (1 Bft) W-NW 292 6,4 C 7,2 C 9,7 km/h (2 Bft)
11.11.2012 11:45 7,3 C 94 % 0,0 l/m 4,0 km/h (1 Bft) W 270 6,4 C 7,4 C 5,8 km/h (2 Bft)
11.11.2012 11:50 7,3 C 94 % 0,0 l/m 3,9 km/h (1 Bft) W-NW 292 6,4 C 7,3 C 4,7 km/h (1 Bft)
11.11.2012 11:55 7,3 C 94 % 0,0 l/m 3,7 km/h (1 Bft) W 270 6,4 C 7,4 C 3,7 km/h (1 Bft)
11.11.2012 12:00 7,3 C 94 % 0,0 l/m 2,6 km/h (1 Bft) W-NW 292 6,4 C 7,5 C 0,0 km/h (0 Bft)
11.11.2012 12:05 7,3 C 94 % 0,0 l/m 2,4 km/h (1 Bft) W 270 6,4 C 7,5 C 4,8 km/h (1 Bft)
11.11.2012 12:10 7,2 C 95 % 0,0 l/m 2,4 km/h (1 Bft) W-NW 292 6,5 C 7,5 C 2,7 km/h (1 Bft)
11.11.2012 12:15 7,3 C 95 % 0,0 l/m 2,1 km/h (1 Bft) O-SO 112 6,6 C 7,5 C 2,9 km/h (1 Bft)
11.11.2012 12:20 7,3 C 95 % 0,0 l/m 2,1 km/h (1 Bft) W 270 6,6 C 7,5 C 6,4 km/h (2 Bft)
11.11.2012 12:25 7,3 C 95 % 0,0 l/m 2,9 km/h (1 Bft) W-NW 292 6,6 C 7,4 C 3,1 km/h (1 Bft)
11.11.2012 12:30 7,3 C 95 % 0,0 l/m 3,1 km/h (1 Bft) W-SW 247 6,6 C 7,4 C 4,0 km/h (1 Bft)
11.11.2012 12:35 7,3 C 95 % 0,0 l/m 1,6 km/h (1 Bft) N 360 6,6 C 7,5 C 0,0 km/h (0 Bft)
11.11.2012 12:40 7,3 C 95 % 0,0 l/m 0,6 km/h (0 Bft) W 270 6,6 C 7,5 C 0,0 km/h (0 Bft)
11.11.2012 12:45 7,3 C 95 % 0,0 l/m 0,8 km/h (0 Bft) W 270 6,6 C 7,5 C 1,8 km/h (1 Bft)
11.11.2012 12:50 7,3 C 95 % 0,0 l/m 0,8 km/h (0 Bft) N 360 6,6 C 7,5 C 0,0 km/h (0 Bft)
11.11.2012 12:55 7,4 C 95 % 0,0 l/m 1,0 km/h (0 Bft) W 270 6,7 C 7,5 C 2,4 km/h (1 Bft)
11.11.2012 13:00 7,4 C 95 % 0,0 l/m 1,0 km/h (0 Bft) NW 315 6,7 C 7,5 C 0,0 km/h (0 Bft)
11.11.2012 13:05 7,4 C 95 % 0,0 l/m 1,0 km/h (0 Bft) W 270 6,7 C 7,5 C 2,3 km/h (1 Bft)
11.11.2012 13:10 7,4 C 95 % 0,0 l/m 1,3 km/h (1 Bft) W 270 6,7 C 7,5 C 1,6 km/h (1 Bft)
11.11.2012 13:15 7,4 C 95 % 0,0 l/m 1,8 km/h (1 Bft) NW 315 6,7 C 7,6 C 2,6 km/h (1 Bft)
11.11.2012 13:20 7,4 C 95 % 0,0 l/m 1,1 km/h (1 Bft) W-SW 247 6,7 C 7,6 C 0,0 km/h (0 Bft)
11.11.2012 13:25 7,4 C 95 % 0,0 l/m 0,8 km/h (0 Bft) W 270 6,7 C 7,6 C 0,0 km/h (0 Bft)
11.11.2012 13:30 7,4 C 95 % 0,0 l/m 1,0 km/h (0 Bft) W-SW 247 6,7 C 7,6 C 0,0 km/h (0 Bft)
11.11.2012 13:35 7,4 C 95 % 0,0 l/m 1,1 km/h (1 Bft) W-NW 292 6,7 C 7,6 C 3,5 km/h (1 Bft)
11.11.2012 13:40 7,4 C 95 % 0,0 l/m 1,8 km/h (1 Bft) W-SW 247 6,7 C 7,6 C 0,0 km/h (0 Bft)
11.11.2012 13:45 7,5 C 95 % 0,0 l/m 2,1 km/h (1 Bft) W 270 6,8 C 7,6 C 0,0 km/h (0 Bft)
11.11.2012 13:50 7,6 C 95 % 0,0 l/m 1,0 km/h (0 Bft) N 360 6,9 C 7,8 C 1,6 km/h (1 Bft)
11.11.2012 13:55 7,6 C 95 % 0,0 l/m 0,8 km/h (0 Bft) N-NW 337 6,9 C 7,8 C 2,1 km/h (1 Bft)
11.11.2012 14:00 7,5 C 95 % 0,0 l/m 1,0 km/h (0 Bft) W-NW 292 6,8 C 7,8 C 2,4 km/h (1 Bft)
11.11.2012 14:05 7,5 C 95 % 0,0 l/m 0,8 km/h (0 Bft) N 360 6,8 C 7,7 C 1,6 km/h (1 Bft)
11.11.2012 14:10 7,5 C 95 % 0,0 l/m 0,5 km/h (0 Bft) N 360 6,8 C 7,7 C 0,0 km/h (0 Bft)
11.11.2012 14:15 7,5 C 95 % 0,0 l/m 0,2 km/h (0 Bft) S-SW 202 6,8 C 7,7 C 0,0 km/h (0 Bft)
11.11.2012 14:20 7,5 C 95 % 0,0 l/m 0,0 km/h (0 Bft) SW 225 6,8 C 7,7 C 0,0 km/h (0 Bft)
11.11.2012 14:25 7,5 C 95 % 0,0 l/m 0,0 km/h (0 Bft) S 180 6,8 C 7,7 C 0,0 km/h (0 Bft)
11.11.2012 14:30 7,5 C 95 % 0,0 l/m 0,0 km/h (0 Bft) S 180 6,8 C 7,7 C 0,0 km/h (0 Bft)
11.11.2012 14:35 7,5 C 95 % 0,0 l/m 0,0 km/h (0 Bft) S 180 6,8 C 7,7 C 0,0 km/h (0 Bft)
11.11.2012 14:40 7,6 C 95 % 0,0 l/m 0,0 km/h (0 Bft) S 180 6,9 C 7,7 C 0,0 km/h (0 Bft)
11.11.2012 14:45 7,7 C 95 % 0,0 l/m 0,0 km/h (0 Bft) SO 135 7,0 C 7,9 C 0,0 km/h (0 Bft)
11.11.2012 14:50 7,8 C 95 % 0,0 l/m 0,0 km/h (0 Bft) O-NO 67 7,0 C 8,0 C 0,0 km/h (0 Bft)
11.11.2012 14:55 7,7 C 95 % 0,0 l/m 0,2 km/h (0 Bft) O-SO 112 7,0 C 8,0 C 2,4 km/h (1 Bft)
11.11.2012 15:00 7,6 C 95 % 0,0 l/m 1,0 km/h (0 Bft) S-SO 157 6,9 C 7,9 C 1,9 km/h (1 Bft)
11.11.2012 15:05 7,6 C 95 % 0,0 l/m 1,3 km/h (1 Bft) O-SO 112 6,9 C 7,8 C 3,5 km/h (1 Bft)
11.11.2012 15:10 7,6 C 95 % 0,0 l/m 2,3 km/h (1 Bft) O-SO 112 6,9 C 7,8 C 4,3 km/h (1 Bft)
11.11.2012 15:15 7,6 C 95 % 0,0 l/m 2,9 km/h (1 Bft) O-SO 112 6,9 C 7,7 C 3,5 km/h (1 Bft)
11.11.2012 15:20 7,6 C 95 % 0,0 l/m 2,4 km/h (1 Bft) SO 135 6,9 C 7,7 C 2,9 km/h (1 Bft)
11.11.2012 15:25 7,6 C 95 % 0,0 l/m 2,3 km/h (1 Bft) O 90 6,9 C 7,7 C 2,4 km/h (1 Bft)
11.11.2012 15:30 7,5 C 95 % 0,0 l/m 3,2 km/h (1 Bft) S-SO 157 6,8 C 7,7 C 4,7 km/h (1 Bft)
11.11.2012 15:35 7,6 C 95 % 0,0 l/m 3,5 km/h (1 Bft) SO 135 6,9 C 7,6 C 4,0 km/h (1 Bft)
11.11.2012 15:40 7,6 C 95 % 0,0 l/m 3,2 km/h (1 Bft) O-SO 112 6,9 C 7,6 C 1,9 km/h (1 Bft)
11.11.2012 15:45 7,6 C 95 % 0,0 l/m 2,9 km/h (1 Bft) SO 135 6,9 C 7,7 C 5,3 km/h (1 Bft)
11.11.2012 15:50 7,6 C 95 % 0,0 l/m 2,7 km/h (1 Bft) O 90 6,9 C 7,7 C 3,4 km/h (1 Bft)
11.11.2012 15:55 7,6 C 95 % 0,0 l/m 3,1 km/h (1 Bft) NW 315 6,9 C 7,7 C 3,1 km/h (1 Bft)
11.11.2012 16:00 7,5 C 95 % 0,0 l/m 2,1 km/h (1 Bft) O-SO 112 6,8 C 7,7 C 2,4 km/h (1 Bft)
11.11.2012 16:05 7,5 C 96 % 0,0 l/m 1,0 km/h (0 Bft) O-SO 112 6,9 C 7,6 C 0,0 km/h (0 Bft)
11.11.2012 16:10 7,5 C 96 % 0,0 l/m 0,5 km/h (0 Bft) O-SO 112 6,9 C 7,6 C 3,1 km/h (1 Bft)
11.11.2012 16:15 7,5 C 96 % 0,0 l/m 0,8 km/h (0 Bft) O-NO 67 6,9 C 7,6 C 0,0 km/h (0 Bft)
11.11.2012 16:20 7,5 C 96 % 0,0 l/m 0,6 km/h (0 Bft) NO 45 6,9 C 7,6 C 0,0 km/h (0 Bft)
11.11.2012 16:25 7,5 C 96 % 0,0 l/m 0,2 km/h (0 Bft) O-SO 112 6,9 C 7,6 C 0,0 km/h (0 Bft)
11.11.2012 16:30 7,5 C 96 % 0,0 l/m 0,3 km/h (0 Bft) NO 45 6,9 C 7,6 C 0,0 km/h (0 Bft)
11.11.2012 16:35 7,5 C 96 % 0,0 l/m 0,8 km/h (0 Bft) O-SO 112 6,9 C 7,6 C 1,9 km/h (1 Bft)
11.11.2012 16:40 7,5 C 96 % 0,0 l/m 2,1 km/h (1 Bft) O-SO 112 6,9 C 7,6 C 5,0 km/h (1 Bft)
11.11.2012 16:45 7,5 C 96 % 0,0 l/m 3,2 km/h (1 Bft) SO 135 6,9 C 7,6 C 3,7 km/h (1 Bft)
11.11.2012 16:50 7,5 C 96 % 0,0 l/m 3,1 km/h (1 Bft) SO 135 6,9 C 7,6 C 2,6 km/h (1 Bft)
11.11.2012 16:55 7,5 C 96 % 0,7 l/m 1,8 km/h (1 Bft) SO 135 6,9 C 7,6 C 0,0 km/h (0 Bft)
11.11.2012 17:00 7,5 C 96 % 0,0 l/m 2,1 km/h (1 Bft) S 180 6,9 C 7,6 C 4,7 km/h (1 Bft)
11.11.2012 17:05 7,5 C 96 % 0,7 l/m 3,2 km/h (1 Bft) O-SO 112 6,9 C 7,6 C 7,4 km/h (2 Bft)
11.11.2012 17:10 7,4 C 96 % 0,0 l/m 4,8 km/h (1 Bft) O-SO 112 6,8 C 7,1 C 3,1 km/h (1 Bft)
11.11.2012 17:15 7,3 C 96 % 0,0 l/m 4,8 km/h (1 Bft) O-SO 112 6,7 C 6,9 C 2,4 km/h (1 Bft)
11.11.2012 17:20 7,3 C 96 % 0,0 l/m 2,9 km/h (1 Bft) O 90 6,7 C 7,4 C 4,3 km/h (1 Bft)
11.11.2012 17:25 7,2 C 96 % 0,0 l/m 2,7 km/h (1 Bft) O-SO 112 6,6 C 7,4 C 3,4 km/h (1 Bft)
11.11.2012 17:30 7,2 C 96 % 0,7 l/m 3,7 km/h (1 Bft) SO 135 6,6 C 7,3 C 5,3 km/h (1 Bft)
11.11.2012 17:35 7,1 C 96 % 0,0 l/m 3,7 km/h (1 Bft) SO 135 6,5 C 7,2 C 5,8 km/h (2 Bft)
11.11.2012 17:40 7,1 C 96 % 0,0 l/m 3,2 km/h (1 Bft) SO 135 6,5 C 7,2 C 1,9 km/h (1 Bft)
11.11.2012 17:45 7,1 C 96 % 0,0 l/m 2,3 km/h (1 Bft) O-SO 112 6,5 C 7,2 C 0,0 km/h (0 Bft)
11.11.2012 17:50 7,1 C 96 % 0,0 l/m 1,0 km/h (0 Bft) SO 135 6,5 C 7,2 C 2,4 km/h (1 Bft)
11.11.2012 17:55 7,1 C 96 % 0,0 l/m 1,3 km/h (1 Bft) S-SO 157 6,5 C 7,2 C 2,7 km/h (1 Bft)
11.11.2012 18:00 7,1 C 96 % 0,0 l/m 3,4 km/h (1 Bft) SO 135 6,5 C 7,2 C 5,6 km/h (1 Bft)
11.11.2012 18:05 7,0 C 96 % 0,0 l/m 4,3 km/h (1 Bft) O-SO 112 6,4 C 6,8 C 5,1 km/h (1 Bft)
11.11.2012 18:10 6,9 C 96 % 0,7 l/m 4,5 km/h (1 Bft) S 180 6,3 C 6,7 C 4,0 km/h (1 Bft)
11.11.2012 18:15 6,8 C 96 % 0,0 l/m 4,2 km/h (1 Bft) SO 135 6,2 C 6,7 C 5,8 km/h (2 Bft)
11.11.2012 18:20 6,7 C 96 % 0,0 l/m 3,9 km/h (1 Bft) O-SO 112 6,1 C 6,7 C 4,3 km/h (1 Bft)
11.11.2012 18:25 6,7 C 96 % 0,0 l/m 4,0 km/h (1 Bft) O-SO 112 6,1 C 6,4 C 2,6 km/h (1 Bft)
11.11.2012 18:30 6,7 C 96 % 0,0 l/m 2,1 km/h (1 Bft) S-SO 157 6,1 C 6,8 C 1,8 km/h (1 Bft)
11.11.2012 18:35 6,7 C 96 % 0,0 l/m 1,6 km/h (1 Bft) SO 135 6,1 C 6,8 C 2,6 km/h (1 Bft)
11.11.2012 18:40 6,6 C 96 % 0,0 l/m 1,6 km/h (1 Bft) O-SO 112 6,0 C 6,7 C 3,2 km/h (1 Bft)
11.11.2012 18:45 6,7 C 96 % 0,0 l/m 2,4 km/h (1 Bft) O-SO 112 6,1 C 6,7 C 4,2 km/h (1 Bft)
11.11.2012 18:50 6,6 C 96 % 0,0 l/m 3,4 km/h (1 Bft) O-SO 112 6,0 C 6,7 C 2,7 km/h (1 Bft)
11.11.2012 18:55 6,5 C 96 % 0,0 l/m 3,1 km/h (1 Bft) O-SO 112 5,9 C 6,7 C 2,6 km/h (1 Bft)
11.11.2012 19:00 6,5 C 96 % 0,0 l/m 3,7 km/h (1 Bft) S-SO 157 5,9 C 6,4 C 9,0 km/h (2 Bft)
11.11.2012 19:05 6,5 C 96 % 0,0 l/m 4,0 km/h (1 Bft) O-SO 112 5,9 C 6,3 C 5,3 km/h (1 Bft)
11.11.2012 19:10 6,4 C 96 % 0,0 l/m 4,0 km/h (1 Bft) O-SO 112 5,8 C 6,2 C 4,8 km/h (1 Bft)
11.11.2012 19:15 6,4 C 96 % 0,0 l/m 3,1 km/h (1 Bft) NO 45 5,8 C 6,5 C 0,0 km/h (0 Bft)
11.11.2012 19:20 6,4 C 96 % 0,0 l/m 1,1 km/h (1 Bft) NO 45 5,8 C 6,5 C 0,0 km/h (0 Bft)
11.11.2012 19:25 6,4 C 96 % 0,0 l/m 0,2 km/h (0 Bft) NO 45 5,8 C 6,5 C 0,0 km/h (0 Bft)
11.11.2012 19:30 6,4 C 96 % 0,0 l/m 0,2 km/h (0 Bft) O 90 5,8 C 6,5 C 0,0 km/h (0 Bft)
11.11.2012 19:35 6,4 C 96 % 0,0 l/m 0,3 km/h (0 Bft) NO 45 5,8 C 6,5 C 0,0 km/h (0 Bft)
11.11.2012 19:40 6,4 C 96 % 0,0 l/m 0,2 km/h (0 Bft) NO 45 5,8 C 6,5 C 0,0 km/h (0 Bft)
11.11.2012 19:45 6,4 C 96 % 0,0 l/m 0,0 km/h (0 Bft) O-NO 67 5,8 C 6,5 C 0,0 km/h (0 Bft)
11.11.2012 19:50 6,4 C 96 % 0,0 l/m 0,0 km/h (0 Bft) O-SO 112 5,8 C 6,6 C 0,0 km/h (0 Bft)
11.11.2012 19:55 6,5 C 96 % 0,0 l/m 0,0 km/h (0 Bft) NO 45 5,9 C 6,6 C 0,0 km/h (0 Bft)
11.11.2012 20:00 6,5 C 96 % 0,0 l/m 0,3 km/h (0 Bft) O-SO 112 5,9 C 6,6 C 2,4 km/h (1 Bft)
11.11.2012 20:05 6,5 C 96 % 0,0 l/m 0,5 km/h (0 Bft) NO 45 5,9 C 6,6 C 0,0 km/h (0 Bft)
11.11.2012 20:10 6,5 C 96 % 0,0 l/m 0,6 km/h (0 Bft) O 90 5,9 C 6,6 C 0,0 km/h (0 Bft)
11.11.2012 20:15 6,4 C 96 % 0,7 l/m 0,5 km/h (0 Bft) O-NO 67 5,8 C 6,5 C 1,8 km/h (1 Bft)
11.11.2012 20:20 6,4 C 96 % 0,0 l/m 1,0 km/h (0 Bft) O-NO 67 5,8 C 6,5 C 1,9 km/h (1 Bft)
11.11.2012 20:25 6,4 C 96 % 0,0 l/m 1,3 km/h (1 Bft) NO 45 5,8 C 6,5 C 1,9 km/h (1 Bft)
11.11.2012 20:30 6,4 C 96 % 0,0 l/m 0,5 km/h (0 Bft) N 360 5,8 C 6,5 C 0,0 km/h (0 Bft)
11.11.2012 20:35 6,3 C 96 % 0,0 l/m 0,2 km/h (0 Bft) O 90 5,7 C 6,4 C 2,3 km/h (1 Bft)
11.11.2012 20:40 6,3 C 96 % 0,0 l/m 0,2 km/h (0 Bft) W 270 5,7 C 6,4 C 0,0 km/h (0 Bft)
11.11.2012 20:45 6,2 C 96 % 0,0 l/m 0,2 km/h (0 Bft) N-NO 22 5,6 C 6,4 C 0,0 km/h (0 Bft)
11.11.2012 20:50 6,0 C 96 % 0,0 l/m 0,0 km/h (0 Bft) N-NO 22 5,4 C 6,2 C 0,0 km/h (0 Bft)
11.11.2012 20:55 5,8 C 97 % 0,0 l/m 0,0 km/h (0 Bft) NO 45 5,4 C 5,9 C 0,0 km/h (0 Bft)
11.11.2012 21:00 5,9 C 97 % 0,0 l/m 0,0 km/h (0 Bft) N-NO 22 5,5 C 5,8 C 0,0 km/h (0 Bft)
11.11.2012 21:05 5,9 C 97 % 0,0 l/m 0,0 km/h (0 Bft) N-NO 22 5,5 C 5,8 C 0,0 km/h (0 Bft)
11.11.2012 21:10 6,0 C 96 % 0,0 l/m 0,0 km/h (0 Bft) N-NO 22 5,4 C 5,8 C 0,0 km/h (0 Bft)
11.11.2012 21:15 6,0 C 96 % 0,0 l/m 0,0 km/h (0 Bft) N 360 5,4 C 5,9 C 0,0 km/h (0 Bft)
11.11.2012 21:20 6,0 C 96 % 0,0 l/m 0,0 km/h (0 Bft) NO 45 5,4 C 6,0 C 0,0 km/h (0 Bft)
11.11.2012 21:25 5,9 C 97 % 0,0 l/m 0,0 km/h (0 Bft) N-NO 22 5,5 C 5,9 C 0,0 km/h (0 Bft)
11.11.2012 21:30 5,9 C 97 % 0,0 l/m 0,0 km/h (0 Bft) N-NO 22 5,5 C 5,9 C 0,0 km/h (0 Bft)
11.11.2012 21:35 5,9 C 97 % 0,0 l/m 0,0 km/h (0 Bft) N-NO 22 5,5 C 5,8 C 0,0 km/h (0 Bft)
11.11.2012 21:40 5,9 C 97 % 0,0 l/m 0,0 km/h (0 Bft) N 360 5,5 C 5,8 C 0,0 km/h (0 Bft)
11.11.2012 21:45 5,9 C 97 % 0,0 l/m 0,0 km/h (0 Bft) O-NO 67 5,5 C 5,8 C 0,0 km/h (0 Bft)
11.11.2012 21:50 5,9 C 97 % 0,0 l/m 0,0 km/h (0 Bft) O-SO 112 5,5 C 5,8 C 0,0 km/h (0 Bft)
11.11.2012 21:55 5,8 C 97 % 0,0 l/m 0,3 km/h (0 Bft) SO 135 5,4 C 5,8 C 1,8 km/h (1 Bft)
11.11.2012 22:00 5,8 C 97 % 0,0 l/m 0,5 km/h (0 Bft) NO 45 5,4 C 5,9 C 1,6 km/h (1 Bft)
11.11.2012 22:05 5,8 C 97 % 0,0 l/m 0,5 km/h (0 Bft) O-SO 112 5,4 C 5,9 C 2,1 km/h (1 Bft)
11.11.2012 22:10 5,8 C 97 % 0,0 l/m 0,3 km/h (0 Bft) NO 45 5,4 C 6,0 C 0,0 km/h (0 Bft)
11.11.2012 22:15 5,8 C 97 % 0,0 l/m 0,2 km/h (0 Bft) W-NW 292 5,4 C 6,0 C 0,0 km/h (0 Bft)
11.11.2012 22:20 5,8 C 97 % 0,0 l/m 0,0 km/h (0 Bft) N-NO 22 5,4 C 5,9 C 0,0 km/h (0 Bft)
11.11.2012 22:25 5,9 C 97 % 0,0 l/m 0,0 km/h (0 Bft) N 360 5,5 C 5,9 C 0,0 km/h (0 Bft)
11.11.2012 22:30 6,0 C 96 % 0,0 l/m 0,0 km/h (0 Bft) O 90 5,4 C 6,0 C 0,0 km/h (0 Bft)
11.11.2012 22:35 6,0 C 96 % 0,0 l/m 0,0 km/h (0 Bft) N-NO 22 5,4 C 6,0 C 0,0 km/h (0 Bft)
11.11.2012 22:40 6,0 C 96 % 0,0 l/m 0,0 km/h (0 Bft) O-SO 112 5,4 C 6,1 C 0,0 km/h (0 Bft)
11.11.2012 22:45 6,0 C 96 % 0,0 l/m 0,0 km/h (0 Bft) N-NO 22 5,4 C 6,1 C 0,0 km/h (0 Bft)
11.11.2012 22:50 6,1 C 96 % 0,0 l/m 0,0 km/h (0 Bft) N-NO 22 5,5 C 6,1 C 0,0 km/h (0 Bft)
11.11.2012 22:55 6,1 C 96 % 0,0 l/m 0,0 km/h (0 Bft) N-NO 22 5,5 C 6,2 C 0,0 km/h (0 Bft)
11.11.2012 23:00 6,1 C 96 % 0,0 l/m 0,0 km/h (0 Bft) N-NO 22 5,5 C 6,2 C 0,0 km/h (0 Bft)
11.11.2012 23:05 6,0 C 96 % 0,0 l/m 0,0 km/h (0 Bft) O-SO 112 5,4 C 6,2 C 0,0 km/h (0 Bft)
11.11.2012 23:10 6,1 C 96 % 0,0 l/m 0,0 km/h (0 Bft) N-NO 22 5,5 C 6,2 C 0,0 km/h (0 Bft)
11.11.2012 23:15 6,1 C 96 % 0,0 l/m 0,0 km/h (0 Bft) N-NO 22 5,5 C 6,2 C 0,0 km/h (0 Bft)
11.11.2012 23:20 6,1 C 96 % 0,0 l/m 0,0 km/h (0 Bft) N-NO 22 5,5 C 6,2 C 0,0 km/h (0 Bft)
11.11.2012 23:25 6,1 C 96 % 0,0 l/m 0,0 km/h (0 Bft) N-NW 337 5,5 C 6,2 C 0,0 km/h (0 Bft)
11.11.2012 23:30 6,1 C 96 % 0,0 l/m 0,0 km/h (0 Bft) N-NW 337 5,5 C 6,2 C 0,0 km/h (0 Bft)
11.11.2012 23:35 6,1 C 96 % 0,0 l/m 0,0 km/h (0 Bft) NO 45 5,5 C 6,2 C 0,0 km/h (0 Bft)
11.11.2012 23:40 6,1 C 96 % 0,0 l/m 0,0 km/h (0 Bft) N 360 5,5 C 6,2 C 0,0 km/h (0 Bft)
11.11.2012 23:45 6,1 C 96 % 0,0 l/m 0,0 km/h (0 Bft) N-NO 22 5,5 C 6,2 C 0,0 km/h (0 Bft)
11.11.2012 23:50 6,0 C 96 % 0,0 l/m 0,0 km/h (0 Bft) SO 135 5,4 C 6,1 C 0,0 km/h (0 Bft)
11.11.2012 23:55 5,9 C 97 % 0,0 l/m 0,0 km/h (0 Bft) O-SO 112 5,5 C 6,1 C 0,0 km/h (0 Bft)
_ Min-Zeit 06:35 01:25 - 23:55 - - 04:30 21:55 23:55
Minimum _ 5,7 C 85 % - 0,0 km/h (0 Bft) - - 4,1 C 5,8 C 0,0 km/h (0 Bft)
_ Max-Zeit 01:10 23:55 20:15 17:15 - - 14:50 09:25 11:40
Maximum _ 8,0 C 97 % 0,7 l/m 4,8 km/h
O-SO (1 Bft)
- - 7,0 C 8,1 C 9,7 km/h
W-NW (2 Bft)
Durchschnitt _ 6,9 C 93 % #6,9 l/m 0,9 km/h (0 Bft) O-SO - 5,7 C 7,0 C 1,3 km/h (1 Bft)